Timeline UpdatesTrip UpdatesNews PostsPvt PostsTravel TipsAdmin PostsConv PostsFollowed PostsChat RequestsBlog PostsPNR Posts

Disclaimer
Search
 
 
Wed Aug 20, 2014 14:18:29 ISTHomeTrainsΣChainsAtlasPNRForumGalleryNewsFAQTripsMembersLoginFeedback
No Recent News for this Train
Other Trains in the News **new
Latest...
.
Wed Apr 17, 2013 (06:13PM)
⇐ Return Journey: Train# 16359

16360/Patna - Ernakulam Express

Mar 06 2014 (1:03PM)
Change Departure Station:
Change Arrival Station:
Post a Train Travel TipPost a Train Travel Tip **new
Post a Comment/Question/Picture/VideoPost a Comment/Question/Picture/Video
Pantry/Catering
✓ Pantry Car Avbl
✓ Catering Avbl
Loco/Rake Reversals
ALD/Allahabad Junction (10);
RSA - Rake Sharing
Rake/Coach Composition
Eng-GS-GS-GS-S1-S2-S3-S4-S5-S6-S7-S8-S9-PC-S10-S11-B1-B2-A1-GS-GS-GS; (reference entry# 725714-3 ); Following is pre-updation information... ; 2A-1, 3A-2, SL-11, GN-4, PC-1, SLR/D-2= 21 Coach Rake.
Loco
News    PNR    Forum    Time-Table    Availability    Fare Chart    Map    Arr/Dep History    Trips    Gallery    ΣChains    X/O    Timeline    
Travel Time: 41h 20m    31 halts    Distance: 2307 km    Avg Speed: 55 km/hr
Type: Mail/Express
Zone: SR/Southern
Departs @ 16:30 (Avg 1h 51m late)
Platform# 5
  T    
Patna Junction/PNBE 
Arrives @ 09:50 +2 nights (Avg 2h 51m late)
Platform# ???
    T  
Tirupati Main/TPTY 

31 halts. 332 intermediate Stations between Patna Junction and Tirupati Main

Show ALL intermediate Stations  Show Old Time-Table

#CodeStation NameX/OArrivesAvgDepartsAvgHaltPFDay#KmSpeedElevZoneAddress
1PNBE»Patna Junction (10)»  -16:30+1:51510.07057mECRPatna 800001, Bihar
2ARAAra Junction (3)  17:12+2:0717:14+2:082m--149.09363mECRarrah( 06182-233411), Bihar
3BXRBuxar (3)X  17:58+2:2418:00+2:242m--1117.44867mECRBuxar, Bihar
4MGSMughal Sarai Junction (8)X  19:57+1:5520:12+1:5515m11211.42383mECRMughalsarai 232101, Uttar Pradesh
5BSBVaranasi Junction (9)  20:55+1:5421:15+1:5220m--1227.86982mNRVaranasi 221002, Uttar Pradesh
6GYNGyanpur Road  22:18+2:1822:20+2:182m--1300.22690mNERBhadohi District, Uttar Pradesh
7ALYAllahabad City (5)  00:15+1:4400:17+1:532m--2349.512101mNERAllahabad(0532-1072), Uttar Pradesh
8ALDAllahabad Junction (10)X00:30+2:0300:55+2:1825m82352.063100mNCRAllahabad 211003, Uttar Pradesh
9STASatna Junction (3)X  03:45+2:1103:55+2:1410m12529.291322mWCRSatna, Madhya Pradesh
10KTEKatni Junction (6)  05:00+2:5205:05+2:525m--2627.668387mWCRKatni, Madhya Pradesh
11JBPJabalpur Junction (4)X  06:25+3:0506:35+3:1310m12718.263416mWCRJabalpur, Madhya Pradesh
12ETItarsi Junction (7)  10:30+2:5110:45+3:0115m52963.467329mWCRItarsi 461111, Madhya Pradesh
13GDYAGhoradongri (3)  11:48+2:5311:49+2:541m--21033.860 CRBetul, Madhya Pradesh
14BZUBetul (3)X  12:25+3:1312:28+3:133m--21069.763644mCRBetul, Madhya Pradesh
15NRKRNarkher Junction (4)X14:08+3:1014:10+3:102m--21174.686411mCRNarkher, Maharashtra
16NGPNagpur Junction (8)  15:10+3:3615:20+3:3910m221260.676314mCRNagpur 440001, Maharashtra
17SEGMSewagram Junction (5)  16:20+3:5016:21+3:511m--21336.874279mCRWardha, Maharashtra
18CDChandrapur Maharashtra (3)X  17:57+2:4518:00+2:433m--21455.314194mCRChandrapur 442401, Maharashtra
19BPQBalharshah Junction (5)  19:00+3:2019:20+3:0820m--21469.1107188mCRBallarpur. Ph : 07172 - 240341, Maharashtra
20SKZRSirpur Kaghaznagar (3)  19:59+3:3720:00+3:371m221538.980181mSCRAdilabad Dist., Telangana
21BPABellampalli (3)  20:29+3:4320:30+3:431m221577.3132205mSCRTel:.08735 223298, Telangana
22MCIManchiryal (3)  20:39+3:5320:40+3:541m221597.292159mSCRAdilabad Dist., Telangana
23RDMRamagundam (3)  20:49+4:0120:50+4:011m221610.943170mSCRKarimnagar Dist. Ph : 08728 - 255237, Telangana
24WLWarangal (3)  23:10+2:5923:12+2:592m121712.178271mSCRWarangal., Telangana
25KMTKhammam (2)  00:35+2:0300:37+2:042m131819.745118mSCRKhammam 507001, Telangana
26BZAVijayawada Junction (10)X  02:50+2:5403:00+2:5610m--31920.06924mSCRVijayawada 520001, Andhra Pradesh
27TELTenali Junction (5)  03:27+3:0103:28+3:041m331951.37616mSCRTel: 08644-227834, Andhra Pradesh
28OGLOngole (3)  04:52+2:4104:53+2:421m332058.37412mSCROngole, Andhra Pradesh
29NLRNellore (4)  06:28+4:1206:29+4:121m332175.12721mSCRNellore, Andhra Pradesh
30GDRGudur Junction (3)  07:53+2:3507:55+2:342m132213.58419mSCRGudur, Andhra Pradesh
31KHTSri Kalahasti (2)  08:38+2:3808:39+2:391m132273.73968mSCRChittoor District, Andhra Pradesh
32RURenigunta Junction (5)  09:15+2:3809:25+2:4010m--32296.924113mSCRChittoor District, Andhra Pradesh
33TPTY•Tirupati Main (5)•  09:50+2:5110:00+2:4810m--32306.858150mSCRChittoor Distt, Andhra Pradesh
34CTOChittoor (3)X  11:14+2:2911:15+2:301m--32378.725305mSCR517001., Andhra Pradesh
35KPDKatpadi Junction (5)X  12:35+2:2312:40+2:225m432411.867213mSRVellore 632007, Tamil Nadu
36JTJJolarpettai Junction (5)  13:55+2:0914:00+2:095m--32495.685405mSRJolarpettai, Tamil Nadu
37SASalem Junction (6)X  15:25+2:0315:30+2:035m--32615.853283mSRSalem, Tamil Nadu
38EDErode Junction (4)X  16:40+2:3916:50+2:4610m232677.570175mSRErode ph.no: 0424-2256111, Tamil Nadu
39TUPTiruppur (2)  17:33+2:4017:35+2:402m132727.543305mSRTiruppur. Ph:0421-2200450, Tamil Nadu
40CBECoimbatore Main Junction (6)  18:45+2:2518:50+2:255m--32778.139416mSRCoimbatore 641001, Tamil Nadu
41PGTPalakkad Junction (4)X  20:15+1:2120:20+1:215m632833.87384mSRPalghat Tel: 0491 2555231, Kerala
42TCRThrissur (4)X  21:22+2:2521:25+2:253m132909.3566mSRThrissur Tel: 0487 2423150, Kerala
43AWYAluva (3)X  22:23+2:3522:25+2:352m132963.92312mSRPh: 0484-2624141, Kerala
44ERSErnakulam Junction (South) (6)  23:15+1:36---32983.3-3mSRErnakulam 682016, Kerala
Scroll to Top
Scroll to Bottom